createdAt,value
2022-09-24T00:01:46.083Z,3.40
2022-09-24T00:04:15.632Z,3.77
2022-09-24T00:06:51.986Z,3.27
2022-09-24T00:09:27.495Z,3.60
2022-09-24T00:11:56.122Z,3.53
2022-09-24T00:14:29.459Z,3.50
2022-09-24T00:16:58.288Z,3.53
2022-09-24T00:19:30.558Z,3.70
2022-09-24T00:22:00.641Z,3.40
2022-09-24T00:24:47.047Z,3.67
2022-09-24T00:27:18.699Z,3.73
2022-09-24T00:29:49.087Z,3.60
2022-09-24T00:32:20.567Z,3.97
2022-09-24T00:34:53.447Z,3.83
2022-09-24T00:37:22.341Z,3.63
2022-09-24T00:39:57.326Z,3.80
2022-09-24T00:42:35.037Z,3.90
2022-09-24T00:45:11.341Z,3.80
2022-09-24T00:47:51.586Z,3.60
2022-09-24T00:50:24.599Z,3.77
2022-09-24T00:53:00.213Z,3.83
2022-09-24T00:55:33.551Z,3.83
2022-09-24T00:58:06.241Z,3.40
2022-09-24T01:00:45.746Z,3.43
2022-09-24T01:03:20.851Z,3.80
2022-09-24T01:05:52.273Z,3.57
2022-09-24T01:08:22.618Z,3.80
2022-09-24T01:11:13.460Z,3.17
2022-09-24T01:14:07.930Z,3.60
2022-09-24T01:16:46.663Z,3.90
2022-09-24T01:19:34.717Z,3.10
2022-09-24T01:22:07.890Z,3.37
2022-09-24T01:24:57.912Z,3.70
2022-09-24T01:27:41.722Z,3.57
2022-09-24T01:30:14.253Z,3.90
2022-09-24T01:32:53.550Z,3.80
2022-09-24T01:35:30.270Z,3.60
2022-09-24T01:38:06.517Z,3.93
2022-09-24T01:40:40.221Z,3.90
2022-09-24T01:43:19.870Z,3.70
2022-09-24T01:45:55.069Z,3.67
2022-09-24T01:48:25.732Z,3.50
2022-09-24T01:51:02.655Z,3.40
2022-09-24T01:53:41.888Z,3.47
2022-09-24T01:56:16.985Z,3.43
2022-09-24T01:58:55.774Z,3.27
2022-09-24T02:01:32.449Z,3.80
2022-09-24T02:04:10.192Z,3.67
2022-09-24T02:06:47.744Z,3.50
2022-09-24T02:09:40.090Z,3.30
2022-09-24T02:12:17.273Z,3.73
2022-09-24T02:14:50.228Z,3.73
2022-09-24T02:17:20.717Z,3.87
2022-09-24T02:19:56.970Z,3.70
2022-09-24T02:22:28.040Z,3.40
2022-09-24T02:24:59.198Z,3.10
2022-09-24T02:27:31.064Z,3.70
2022-09-24T02:30:01.442Z,3.73
2022-09-24T02:32:35.235Z,3.90
2022-09-24T02:35:07.140Z,3.63
2022-09-24T02:37:38.221Z,4.00
2022-09-24T02:40:11.930Z,3.53
2022-09-24T02:42:46.413Z,3.70
2022-09-24T02:45:15.644Z,3.73
2022-09-24T02:47:50.689Z,3.80
2022-09-24T02:50:19.191Z,3.67
2022-09-24T02:52:47.531Z,3.60
2022-09-24T02:55:20.325Z,3.30
2022-09-24T02:57:48.560Z,3.40
2022-09-24T03:00:21.110Z,3.70
2022-09-24T03:02:52.077Z,3.43
2022-09-24T03:05:21.639Z,4.20
2022-09-24T03:07:50.571Z,3.97
2022-09-24T03:10:22.292Z,4.00
2022-09-24T03:12:52.899Z,3.90
2022-09-24T03:15:21.623Z,3.90
2022-09-24T03:17:52.252Z,4.53
2022-09-24T03:20:24.561Z,3.93
2022-09-24T03:22:56.077Z,4.27
2022-09-24T03:25:27.835Z,4.07
2022-09-24T03:27:58.632Z,3.93
2022-09-24T03:30:44.459Z,4.00
2022-09-24T03:33:14.619Z,4.10
2022-09-24T03:35:46.218Z,4.33
2022-09-24T03:38:17.566Z,4.43
2022-09-24T03:40:46.504Z,4.20
2022-09-24T03:43:15.495Z,4.63
2022-09-24T03:45:44.663Z,4.10
2022-09-24T03:48:22.280Z,4.00
2022-09-24T03:50:54.670Z,4.47
2022-09-24T03:53:23.973Z,3.90
2022-09-24T03:55:59.196Z,4.30
2022-09-24T03:58:27.953Z,3.97
2022-09-24T04:00:58.346Z,3.87
2022-09-24T04:03:30.935Z,3.70
2022-09-24T04:06:00.168Z,4.60
2022-09-24T04:08:29.450Z,4.20
2022-09-24T04:10:58.553Z,4.20
2022-09-24T04:13:27.656Z,3.60
2022-09-24T04:16:03.789Z,3.93
2022-09-24T04:18:38.920Z,4.30
2022-09-24T04:21:08.644Z,3.73
2022-09-24T04:23:37.416Z,4.20
2022-09-24T04:26:06.396Z,4.10
2022-09-24T04:28:37.326Z,4.07
2022-09-24T04:31:09.483Z,4.10
2022-09-24T04:33:40.856Z,4.57
2022-09-24T04:36:11.964Z,4.30
2022-09-24T04:38:43.069Z,4.27
2022-09-24T04:41:16.279Z,4.50
2022-09-24T04:43:46.893Z,4.60
2022-09-24T04:46:19.385Z,4.57
2022-09-24T04:48:55.543Z,4.30
2022-09-24T04:51:24.454Z,4.00
2022-09-24T04:53:53.194Z,4.30
2022-09-24T04:56:22.229Z,3.83
2022-09-24T04:58:53.726Z,4.03
2022-09-24T05:01:24.079Z,4.10
2022-09-24T05:03:56.654Z,4.10
2022-09-24T05:06:36.074Z,4.23
2022-09-24T05:09:10.310Z,4.10
2022-09-24T05:11:43.829Z,4.23
2022-09-24T05:14:15.656Z,4.00
2022-09-24T05:16:44.398Z,3.87
2022-09-24T05:19:15.191Z,4.03
2022-09-24T05:21:50.147Z,4.00
2022-09-24T05:24:19.361Z,4.73
2022-09-24T05:27:07.529Z,3.80
2022-09-24T05:29:36.804Z,3.97
2022-09-24T05:32:12.617Z,4.00
2022-09-24T05:34:46.886Z,4.27
2022-09-24T05:37:21.518Z,4.13
2022-09-24T05:39:49.946Z,3.70
2022-09-24T05:42:20.590Z,3.87
2022-09-24T05:44:54.829Z,3.80
2022-09-24T05:47:25.951Z,4.10
2022-09-24T05:49:56.907Z,4.17
2022-09-24T05:52:25.835Z,4.10
2022-09-24T05:54:57.414Z,4.37
2022-09-24T05:57:26.816Z,4.47
2022-09-24T06:00:03.305Z,3.90
2022-09-24T06:02:40.681Z,4.30
2022-09-24T06:05:20.864Z,4.37
2022-09-24T06:07:53.290Z,4.10
2022-09-24T06:10:22.179Z,4.67
2022-09-24T06:12:53.511Z,4.00
2022-09-24T06:15:27.420Z,4.30
2022-09-24T06:17:56.786Z,4.13
2022-09-24T06:20:30.020Z,4.40
2022-09-24T06:23:01.156Z,4.23
2022-09-24T06:25:31.155Z,4.80
2022-09-24T06:28:01.974Z,4.90
2022-09-24T06:30:32.490Z,4.27
2022-09-24T06:33:05.760Z,4.47
2022-09-24T06:35:38.299Z,4.53
2022-09-24T06:38:08.063Z,4.43
2022-09-24T06:40:37.848Z,4.63
2022-09-24T06:43:08.703Z,4.57
2022-09-24T06:45:41.178Z,5.00
2022-09-24T06:48:17.294Z,4.87
2022-09-24T06:50:50.834Z,5.53
2022-09-24T06:53:23.359Z,4.90
2022-09-24T06:55:55.466Z,5.00
2022-09-24T06:58:29.333Z,5.50
2022-09-24T07:01:00.277Z,5.17
2022-09-24T07:03:30.717Z,5.40
2022-09-24T07:06:04.712Z,5.47
2022-09-24T07:08:33.919Z,5.03
2022-09-24T07:11:02.793Z,5.60
2022-09-24T07:13:31.921Z,6.70
2022-09-24T07:16:03.554Z,6.13
2022-09-24T07:18:41.236Z,6.33
2022-09-24T07:21:16.506Z,6.53
2022-09-24T07:23:45.184Z,6.50
2022-09-24T07:26:14.335Z,5.77
2022-09-24T07:28:45.751Z,5.80
2022-09-24T07:31:14.549Z,6.47
2022-09-24T07:33:43.070Z,6.30
2022-09-24T07:36:11.666Z,6.73
2022-09-24T07:38:43.236Z,6.63
2022-09-24T07:41:11.502Z,6.30
2022-09-24T07:43:40.128Z,6.53
2022-09-24T07:46:08.447Z,6.60
2022-09-24T07:48:36.916Z,6.40
2022-09-24T07:51:05.705Z,6.60
2022-09-24T07:53:34.221Z,5.97
2022-09-24T07:56:04.322Z,6.30
2022-09-24T07:58:32.937Z,6.40
2022-09-24T08:01:02.002Z,6.10
2022-09-24T08:03:31.629Z,6.63
2022-09-24T08:06:01.935Z,7.40
2022-09-24T08:08:32.791Z,6.83
2022-09-24T08:11:06.068Z,6.60
2022-09-24T08:13:38.362Z,6.70
2022-09-24T08:16:10.907Z,7.70
2022-09-24T08:18:41.447Z,7.40
2022-09-24T08:21:11.979Z,8.00
2022-09-24T08:23:41.279Z,7.60
2022-09-24T08:26:11.628Z,7.13
2022-09-24T08:28:42.058Z,6.93
2022-09-24T08:31:14.173Z,7.47
2022-09-24T08:33:43.883Z,6.80
2022-09-24T08:36:12.279Z,7.27
2022-09-24T08:38:40.623Z,6.87
2022-09-24T08:41:31.299Z,6.50
2022-09-24T08:44:05.181Z,7.27
2022-09-24T08:46:55.449Z,7.80
2022-09-24T08:49:31.544Z,7.57
2022-09-24T08:52:05.777Z,7.73
2022-09-24T08:54:36.364Z,8.03
2022-09-24T08:57:18.359Z,8.27
2022-09-24T08:59:51.299Z,7.67
2022-09-24T09:02:36.188Z,8.20
2022-09-24T09:05:17.017Z,8.03
2022-09-24T09:07:51.882Z,8.03
2022-09-24T09:10:29.214Z,7.30
2022-09-24T09:13:06.652Z,7.90
2022-09-24T09:15:42.256Z,7.37
2022-09-24T09:18:17.773Z,7.83
2022-09-24T09:20:48.434Z,7.73
2022-09-24T09:23:20.529Z,7.10
2022-09-24T09:25:53.476Z,7.40
2022-09-24T09:28:23.676Z,7.20
2022-09-24T09:31:04.611Z,7.00
2022-09-24T09:33:47.595Z,6.90
2022-09-24T09:36:32.400Z,6.77
2022-09-24T09:39:07.443Z,6.53
2022-09-24T09:41:41.860Z,6.90
2022-09-24T09:44:18.240Z,6.50
2022-09-24T09:46:53.090Z,6.93
2022-09-24T09:49:22.597Z,6.23
2022-09-24T09:51:56.352Z,7.00
2022-09-24T09:54:37.808Z,6.20
2022-09-24T09:57:08.343Z,5.80
2022-09-24T09:59:40.399Z,6.07
2022-09-24T10:02:17.483Z,6.23
2022-09-24T10:04:46.580Z,6.07
2022-09-24T10:07:17.462Z,5.63
2022-09-24T10:09:47.844Z,5.90
2022-09-24T10:12:21.601Z,6.00
2022-09-24T10:15:01.618Z,5.67
2022-09-24T10:17:37.812Z,5.80
2022-09-24T10:20:16.464Z,6.40
2022-09-24T10:22:57.223Z,5.63
2022-09-24T10:25:28.427Z,5.93
2022-09-24T10:28:16.056Z,6.03
2022-09-24T10:30:56.414Z,5.97
2022-09-24T10:33:25.461Z,5.70
2022-09-24T10:36:12.732Z,6.10
2022-09-24T10:38:47.523Z,6.10
2022-09-24T10:41:19.101Z,6.07
2022-09-24T10:44:10.265Z,5.93
2022-09-24T10:47:18.906Z,6.10
2022-09-24T10:50:09.027Z,5.90
2022-09-24T10:52:51.507Z,5.97
2022-09-24T10:55:52.778Z,6.17
2022-09-24T10:58:54.840Z,6.10
2022-09-24T11:02:07.169Z,5.50
2022-09-24T11:04:52.177Z,6.20
2022-09-24T11:07:52.791Z,6.40
2022-09-24T11:10:36.133Z,6.93
2022-09-24T11:13:29.267Z,5.97
2022-09-24T11:16:33.645Z,6.30
2022-09-24T11:19:06.131Z,6.73
2022-09-24T11:21:58.075Z,6.70
2022-09-24T11:24:54.456Z,5.93
2022-09-24T11:27:55.267Z,5.93
2022-09-24T11:30:27.221Z,6.30
2022-09-24T11:33:11.374Z,6.27
2022-09-24T11:36:18.644Z,6.10
2022-09-24T11:39:07.496Z,5.80
2022-09-24T11:41:59.907Z,5.83
2022-09-24T11:45:07.306Z,5.43
2022-09-24T11:48:12.443Z,5.00
2022-09-24T11:51:01.188Z,5.00
2022-09-24T11:53:40.379Z,5.00
2022-09-24T11:56:16.229Z,4.67
2022-09-24T11:58:48.624Z,5.13
2022-09-24T12:01:26.619Z,5.17
2022-09-24T12:04:12.731Z,4.57
2022-09-24T12:06:52.931Z,4.53
2022-09-24T12:09:33.518Z,4.60
2022-09-24T12:12:08.754Z,4.47
2022-09-24T12:14:46.221Z,4.80
2022-09-24T12:17:37.287Z,4.77
2022-09-24T12:20:20.498Z,4.27
2022-09-24T12:23:00.354Z,4.20
2022-09-24T12:25:33.999Z,4.50
2022-09-24T12:28:12.480Z,4.87
2022-09-24T12:31:12.439Z,4.40
2022-09-24T12:33:51.172Z,4.77
2022-09-24T12:36:28.223Z,4.83
2022-09-24T12:39:07.229Z,4.83
2022-09-24T12:42:00.866Z,4.33
2022-09-24T12:44:40.706Z,4.83
2022-09-24T12:47:22.563Z,5.30
2022-09-24T12:50:08.551Z,4.27
2022-09-24T12:52:41.990Z,4.00
2022-09-24T12:55:28.045Z,4.37
2022-09-24T12:57:59.789Z,4.50
2022-09-24T13:00:46.554Z,4.50
2022-09-24T13:03:41.961Z,4.33
2022-09-24T13:06:40.692Z,4.20
2022-09-24T13:09:38.772Z,4.57
2022-09-24T13:12:22.615Z,4.90
2022-09-24T13:15:07.910Z,4.90
2022-09-24T13:17:40.958Z,4.60
2022-09-24T13:20:22.280Z,4.40
2022-09-24T13:23:13.903Z,4.13
2022-09-24T13:26:01.091Z,4.17
2022-09-24T13:28:55.745Z,4.30
2022-09-24T13:31:35.284Z,4.70
2022-09-24T13:34:25.006Z,4.10
2022-09-24T13:37:29.120Z,4.43
2022-09-24T13:40:07.586Z,4.20
2022-09-24T13:42:55.271Z,3.80
2022-09-24T13:45:31.701Z,3.90
2022-09-24T13:48:35.329Z,4.20
2022-09-24T13:51:09.852Z,4.30
2022-09-24T13:54:13.158Z,4.70
2022-09-24T13:56:42.294Z,3.93
2022-09-24T13:59:28.625Z,4.10
2022-09-24T14:02:20.374Z,4.00
2022-09-24T14:05:07.907Z,3.90
2022-09-24T14:08:01.408Z,3.83
2022-09-24T14:11:12.309Z,3.83
2022-09-24T14:14:30.445Z,4.00
2022-09-24T14:17:42.854Z,3.70
2022-09-24T14:20:41.694Z,3.50
2022-09-24T14:23:43.151Z,3.20
2022-09-24T14:26:36.320Z,2.90
2022-09-24T14:29:40.757Z,3.33
2022-09-24T14:33:05.724Z,3.10
2022-09-24T14:40:04.302Z,3.23
2022-09-24T14:43:04.277Z,3.17
2022-09-24T14:45:40.980Z,3.40
2022-09-24T14:48:22.490Z,3.30
2022-09-24T14:50:51.416Z,3.33
2022-09-24T14:53:26.432Z,3.30
2022-09-24T14:58:35.649Z,3.30
2022-09-24T15:00:25.617Z,3.00
2022-09-24T15:03:03.635Z,3.50
2022-09-24T15:05:40.521Z,3.57
2022-09-24T15:08:27.570Z,3.60
2022-09-24T15:10:58.225Z,3.73
2022-09-24T15:13:37.279Z,3.20
2022-09-24T15:17:19.359Z,3.67
2022-09-24T15:20:09.893Z,3.90
2022-09-24T15:23:00.525Z,3.70
2022-09-24T15:26:14.565Z,3.80
2022-09-24T15:29:10.707Z,3.93
2022-09-24T15:31:52.945Z,4.13
2022-09-24T15:34:24.868Z,3.90
2022-09-24T15:36:59.309Z,3.70
2022-09-24T15:39:34.214Z,4.17
2022-09-24T15:42:13.206Z,4.20
2022-09-24T15:44:46.627Z,4.10
2022-09-24T15:47:16.614Z,4.03
2022-09-24T15:49:47.515Z,4.67
2022-09-24T15:52:42.350Z,4.23
2022-09-24T15:55:19.340Z,4.63
2022-09-24T15:57:50.414Z,4.33
2022-09-24T16:00:44.564Z,4.20
2022-09-24T16:04:01.807Z,3.77
2022-09-24T16:06:34.238Z,4.27
2022-09-24T16:09:37.356Z,3.80
2022-09-24T16:12:30.200Z,4.10
2022-09-24T16:15:26.637Z,4.10
2022-09-24T16:18:07.849Z,4.40
2022-09-24T16:20:43.279Z,3.90
2022-09-24T16:23:26.282Z,3.97
2022-09-24T16:26:02.655Z,4.27
2022-09-24T16:28:40.015Z,3.80
2022-09-24T16:31:19.759Z,3.53
2022-09-24T16:33:50.200Z,4.00
2022-09-24T16:36:25.365Z,4.10
2022-09-24T16:39:16.625Z,4.40
2022-09-24T16:41:45.884Z,4.20
2022-09-24T16:44:17.197Z,3.97
2022-09-24T16:46:58.803Z,4.07
2022-09-24T16:49:35.165Z,3.80
2022-09-24T16:52:09.500Z,4.10
2022-09-24T16:54:40.534Z,4.30
2022-09-24T16:57:09.608Z,4.27
2022-09-24T16:59:41.204Z,4.03
2022-09-24T17:02:52.457Z,4.27
2022-09-24T17:05:34.265Z,4.10
2022-09-24T17:08:04.334Z,4.07
2022-09-24T17:10:31.950Z,3.87
2022-09-24T17:13:01.889Z,4.10
2022-09-24T17:15:30.524Z,4.43
2022-09-24T17:17:59.629Z,4.60
2022-09-24T17:20:27.985Z,4.40
2022-09-24T17:22:56.141Z,4.23
2022-09-24T17:25:40.812Z,4.10
2022-09-24T17:28:12.216Z,4.10
2022-09-24T17:30:42.597Z,4.10
2022-09-24T17:33:41.398Z,4.10
2022-09-24T17:36:16.812Z,4.60
2022-09-24T17:38:45.447Z,4.10
2022-09-24T17:41:15.880Z,4.67
2022-09-24T17:43:44.284Z,4.57
2022-09-24T17:46:33.208Z,4.90
2022-09-24T17:50:05.768Z,4.63
2022-09-24T17:52:25.275Z,4.57
2022-09-24T17:55:23.081Z,4.13
2022-09-24T17:58:26.944Z,6.63
2022-09-24T18:01:35.983Z,8.27
2022-09-24T18:04:11.990Z,6.87
2022-09-24T18:06:44.778Z,6.00
2022-09-24T18:09:19.374Z,6.03
2022-09-24T18:11:54.155Z,4.17
2022-09-24T18:14:26.222Z,4.90
2022-09-24T18:16:54.474Z,5.07
2022-09-24T18:19:24.670Z,5.03
2022-09-24T18:21:52.777Z,5.40
2022-09-24T18:24:21.618Z,6.30
2022-09-24T18:26:53.337Z,6.60
2022-09-24T18:29:29.538Z,5.97
2022-09-24T18:32:04.897Z,6.10
2022-09-24T18:34:33.822Z,6.00
2022-09-24T18:37:13.927Z,5.87
2022-09-24T18:39:42.631Z,5.83
2022-09-24T18:42:14.271Z,6.03
2022-09-24T18:44:44.383Z,6.40
2022-09-24T18:47:14.865Z,6.20
2022-09-24T18:49:43.536Z,6.03
2022-09-24T18:52:12.405Z,5.40
2022-09-24T18:54:59.348Z,5.40
2022-09-24T18:57:38.182Z,5.70
2022-09-24T19:00:56.228Z,5.87
2022-09-24T19:03:30.624Z,5.73
2022-09-24T19:06:10.023Z,5.97
2022-09-24T19:08:43.020Z,5.90
2022-09-24T19:11:14.900Z,5.60
2022-09-24T19:13:54.180Z,5.53
2022-09-24T19:16:25.727Z,5.77
2022-09-24T19:18:55.878Z,5.83
2022-09-24T19:21:26.105Z,4.83
2022-09-24T19:23:56.537Z,5.17
2022-09-24T19:26:26.685Z,5.30
2022-09-24T19:29:09.730Z,4.70
2022-09-24T19:31:56.623Z,4.63
2022-09-24T19:34:52.961Z,4.37
2022-09-24T19:37:30.661Z,4.33
2022-09-24T19:40:17.249Z,4.20
2022-09-24T19:43:30.603Z,4.40
2022-09-24T19:46:09.744Z,4.23
2022-09-24T19:49:00.420Z,4.00
2022-09-24T19:51:31.386Z,4.63
2022-09-24T19:54:04.464Z,5.80
2022-09-24T19:56:40.733Z,4.90
2022-09-24T19:59:16.342Z,5.43
2022-09-24T20:01:47.650Z,4.37
2022-09-24T20:04:32.353Z,4.23
2022-09-24T20:07:23.836Z,4.37
2022-09-24T20:13:22.831Z,3.60
2022-09-24T20:16:14.924Z,3.77
2022-09-24T20:22:44.742Z,3.70
2022-09-24T20:25:48.199Z,3.20
2022-09-24T20:28:22.612Z,3.50
2022-09-24T20:31:21.131Z,3.33
2022-09-24T20:33:56.686Z,4.03
2022-09-24T20:36:33.311Z,3.53
2022-09-24T20:39:16.436Z,4.40
2022-09-24T20:41:51.188Z,3.50
2022-09-24T20:44:38.787Z,4.23
2022-09-24T20:47:10.138Z,4.23
2022-09-24T20:49:58.970Z,3.50
2022-09-24T20:52:27.796Z,3.27
2022-09-24T20:55:16.138Z,3.53
2022-09-24T21:01:18.417Z,3.57
2022-09-24T21:18:39.891Z,3.10
2022-09-24T21:29:31.862Z,4.10
2022-09-24T21:46:20.992Z,3.60
2022-09-24T21:48:02.451Z,4.37
2022-09-24T21:50:35.712Z,3.97
2022-09-24T21:53:44.921Z,4.17
2022-09-24T21:56:43.047Z,3.80
2022-09-24T22:09:18.821Z,4.30
2022-09-24T22:17:04.560Z,4.37
2022-09-24T22:19:34.446Z,4.43
2022-09-24T22:22:07.009Z,4.50
2022-09-24T22:24:42.043Z,4.50
2022-09-24T22:27:20.595Z,4.30
2022-09-24T22:29:54.034Z,4.80
2022-09-24T22:36:33.250Z,4.47
2022-09-24T22:42:37.683Z,4.90
2022-09-24T22:45:06.724Z,5.27
2022-09-24T22:47:43.116Z,4.30
2022-09-24T22:50:31.680Z,5.07
2022-09-24T22:53:34.096Z,4.77
2022-09-24T22:56:12.856Z,4.80
2022-09-24T22:58:43.533Z,5.00
2022-09-24T23:02:08.311Z,5.23
2022-09-24T23:04:26.219Z,4.77
2022-09-24T23:06:54.985Z,4.83
2022-09-24T23:09:23.673Z,5.23
2022-09-24T23:11:56.695Z,4.67
2022-09-24T23:14:34.977Z,5.23
2022-09-24T23:20:17.749Z,5.13
2022-09-24T23:23:19.762Z,4.80
2022-09-24T23:26:21.190Z,5.30
2022-09-24T23:31:50.852Z,5.27
2022-09-24T23:34:20.506Z,5.50
2022-09-24T23:37:43.982Z,5.03
2022-09-24T23:40:18.937Z,5.33
2022-09-24T23:42:48.131Z,5.67
2022-09-24T23:45:27.954Z,6.00
2022-09-24T23:48:05.408Z,5.87
2022-09-24T23:50:34.390Z,5.60
2022-09-24T23:56:02.885Z,6.30
2022-09-24T23:58:32.306Z,6.03
